createdAt,value
2018-12-31T00:00:02.178Z,25.2
2018-12-31T00:01:04.614Z,25.3
2018-12-31T00:02:07.116Z,25.1
2018-12-31T00:03:09.552Z,25
2018-12-31T00:04:11.464Z,25.2
2018-12-31T00:05:13.906Z,25.1
2018-12-31T00:06:16.366Z,24.9
2018-12-31T00:07:18.786Z,25.1
2018-12-31T00:08:21.215Z,25.2
2018-12-31T00:09:23.637Z,25.1
2018-12-31T00:10:26.144Z,25.2
2018-12-31T00:11:28.565Z,25.3
2018-12-31T00:12:30.718Z,25.3
2018-12-31T00:13:33.144Z,25.3
2018-12-31T00:14:35.288Z,25.1
2018-12-31T00:15:37.720Z,25.2
2018-12-31T00:16:40.142Z,25.3
2018-12-31T00:17:42.565Z,25
2018-12-31T00:18:44.752Z,25.2
2018-12-31T00:19:46.895Z,25.4
2018-12-31T00:20:49.378Z,25.5
2018-12-31T00:21:51.806Z,25.3
2018-12-31T00:22:54.229Z,25.3
2018-12-31T00:23:56.120Z,25.1
2018-12-31T00:24:58.608Z,25.2
2018-12-31T00:26:01.209Z,25.4
2018-12-31T00:27:03.380Z,25.3
2018-12-31T00:28:05.804Z,25.1
2018-12-31T00:29:08.235Z,25.2
2018-12-31T00:30:10.447Z,25.1
2018-12-31T00:31:12.871Z,25.3
2018-12-31T00:32:15.304Z,25.4
2018-12-31T00:33:17.754Z,25.1
2018-12-31T00:34:19.918Z,25.3
2018-12-31T00:35:22.334Z,25.4
2018-12-31T00:36:24.504Z,25.3
2018-12-31T00:37:26.940Z,25.3
2018-12-31T00:38:29.364Z,25.3
2018-12-31T00:39:31.788Z,25.3
2018-12-31T00:40:34.215Z,25.5
2018-12-31T00:41:36.648Z,25.5
2018-12-31T00:42:39.075Z,25.5
2018-12-31T00:43:41.500Z,25.4
2018-12-31T00:44:43.934Z,25.4
2018-12-31T00:45:46.359Z,25.5
2018-12-31T00:46:48.512Z,25.3
2018-12-31T00:47:50.744Z,25.6
2018-12-31T00:48:52.642Z,25.5
2018-12-31T00:49:55.082Z,25.4
2018-12-31T00:50:57.515Z,25.8
2018-12-31T00:51:59.670Z,25.6
2018-12-31T00:53:02.094Z,25.4
2018-12-31T00:54:04.515Z,25.6
2018-12-31T00:55:06.936Z,25.6
2018-12-31T00:56:09.444Z,25.7
2018-12-31T00:57:11.879Z,25.7
2018-12-31T00:58:14.330Z,25.3
2018-12-31T00:59:16.757Z,25.6
2018-12-31T01:00:18.903Z,25.7
2018-12-31T01:01:21.323Z,25.7
2018-12-31T01:02:23.750Z,25.6
2018-12-31T01:03:27.749Z,25.4
2018-12-31T01:04:29.902Z,25.7
2018-12-31T01:05:32.342Z,25.6
2018-12-31T01:06:34.774Z,25.4
2018-12-31T01:07:37.330Z,26
2018-12-31T01:08:39.733Z,25.8
2018-12-31T01:09:42.203Z,25.6
2018-12-31T01:10:44.101Z,25.7
2018-12-31T01:11:46.264Z,25.7
2018-12-31T01:12:48.704Z,25.8
2018-12-31T01:13:50.870Z,25.5
2018-12-31T01:14:53.026Z,25.5
2018-12-31T01:15:55.185Z,25.8
2018-12-31T01:16:57.352Z,25.5
2018-12-31T01:17:59.777Z,25.7
2018-12-31T01:19:02.235Z,25.6
2018-12-31T01:20:04.672Z,25.8
2018-12-31T01:21:07.112Z,25.8
2018-12-31T01:22:08.974Z,25.7
2018-12-31T01:23:11.146Z,25.6
2018-12-31T01:24:13.584Z,25.4
2018-12-31T01:25:15.744Z,25.9
2018-12-31T01:26:18.186Z,25.5
2018-12-31T01:27:20.622Z,25.7
2018-12-31T01:28:22.773Z,25.7
2018-12-31T01:29:24.925Z,25.6
2018-12-31T01:30:27.094Z,25.7
2018-12-31T01:31:29.290Z,25.7
2018-12-31T01:32:31.453Z,25.5
2018-12-31T01:33:33.632Z,25.7
2018-12-31T01:34:36.066Z,25.5
2018-12-31T01:35:38.492Z,25.7
2018-12-31T01:36:40.662Z,25.6
2018-12-31T01:37:43.125Z,25.6
2018-12-31T01:38:45.266Z,25.4
2018-12-31T01:39:47.787Z,25.7
2018-12-31T01:40:49.935Z,25.7
2018-12-31T01:41:51.531Z,25.6
2018-12-31T01:42:53.972Z,25.8
2018-12-31T01:43:56.126Z,25.4
2018-12-31T01:44:58.558Z,25.8
2018-12-31T01:46:00.203Z,25.8
2018-12-31T01:47:02.085Z,25.3
2018-12-31T01:48:04.512Z,25.4
2018-12-31T01:49:06.379Z,25.5
2018-12-31T01:50:08.532Z,25.7
2018-12-31T01:51:11.386Z,25.7
2018-12-31T01:52:13.699Z,25.7
2018-12-31T01:53:15.857Z,25.5
2018-12-31T01:54:17.454Z,25.7
2018-12-31T01:55:19.882Z,25.6
2018-12-31T01:56:22.313Z,25.9
2018-12-31T01:57:24.727Z,25.8
2018-12-31T01:58:27.175Z,25.8
2018-12-31T01:59:29.017Z,25.5
2018-12-31T02:00:31.701Z,25.9
2018-12-31T02:01:34.243Z,25.9
2018-12-31T02:02:36.670Z,25.5
2018-12-31T02:03:39.095Z,25.7
2018-12-31T02:04:41.520Z,25.6
2018-12-31T02:05:43.955Z,25.8
2018-12-31T02:06:46.107Z,25.7
2018-12-31T02:07:48.297Z,26
2018-12-31T02:08:50.732Z,26.1
2018-12-31T02:09:52.894Z,25.8
2018-12-31T02:10:55.054Z,25.9
2018-12-31T02:11:57.482Z,25.9
2018-12-31T02:12:59.645Z,25.9
2018-12-31T02:14:02.088Z,25.7
2018-12-31T02:15:04.518Z,25.8
2018-12-31T02:16:06.945Z,26.1
2018-12-31T02:17:09.100Z,25.8
2018-12-31T02:18:11.542Z,26.1
2018-12-31T02:19:13.677Z,25.7
2018-12-31T02:20:15.842Z,25.6
2018-12-31T02:21:18.283Z,25.9
2018-12-31T02:22:20.714Z,25.7
2018-12-31T02:23:23.149Z,25.9
2018-12-31T02:24:25.300Z,25.7
2018-12-31T02:25:27.729Z,25.8
2018-12-31T02:26:29.896Z,26
2018-12-31T02:27:32.120Z,25.7
2018-12-31T02:28:34.247Z,25.8
2018-12-31T02:29:36.107Z,25.9
2018-12-31T02:30:38.544Z,25.6
2018-12-31T02:31:40.702Z,25.7
2018-12-31T02:32:42.859Z,25.9
2018-12-31T02:33:45.294Z,25.7
2018-12-31T02:34:47.167Z,25.6
2018-12-31T02:35:49.604Z,25.7
2018-12-31T02:36:51.227Z,25.6
2018-12-31T02:37:53.404Z,25.7
2018-12-31T02:38:55.843Z,25.9
2018-12-31T02:39:58.033Z,25.9
2018-12-31T02:41:00.460Z,25.9
2018-12-31T02:42:02.925Z,25.8
2018-12-31T02:43:05.366Z,25.7
2018-12-31T02:44:07.811Z,25.9
2018-12-31T02:45:09.974Z,25.6
2018-12-31T02:46:12.157Z,25.5
2018-12-31T02:47:15.196Z,25.7
2018-12-31T02:48:17.671Z,25.8
2018-12-31T02:49:20.086Z,25.8
2018-12-31T02:50:22.243Z,25.9
2018-12-31T02:51:24.693Z,26.1
2018-12-31T02:52:27.114Z,25.7
2018-12-31T02:53:29.547Z,25.5
2018-12-31T02:54:31.693Z,25.9
2018-12-31T02:55:33.611Z,25.7
2018-12-31T02:56:35.763Z,26
2018-12-31T02:57:38.184Z,25.8
2018-12-31T02:58:40.363Z,25.9
2018-12-31T02:59:42.518Z,26.1
2018-12-31T03:00:44.962Z,25.7
2018-12-31T03:01:47.184Z,25.8
2018-12-31T03:02:49.614Z,26
2018-12-31T03:03:51.794Z,25.7
2018-12-31T03:04:54.224Z,25.7
2018-12-31T03:05:56.653Z,25.9
2018-12-31T03:06:59.092Z,25.9
2018-12-31T03:08:01.526Z,25.7
2018-12-31T03:09:03.942Z,26
2018-12-31T03:10:05.821Z,25.8
2018-12-31T03:11:08.235Z,26
2018-12-31T03:12:10.660Z,25.7
2018-12-31T03:13:13.104Z,25.8
2018-12-31T03:14:15.526Z,25.6
2018-12-31T03:15:17.964Z,25.8
2018-12-31T03:16:20.113Z,25.7
2018-12-31T03:17:22.552Z,26.1
2018-12-31T03:18:24.705Z,25.7
2018-12-31T03:19:27.146Z,25.7
2018-12-31T03:20:29.574Z,25.8
2018-12-31T03:21:31.728Z,25.9
2018-12-31T03:22:33.924Z,25.9
2018-12-31T03:23:35.239Z,25.8
2018-12-31T03:24:37.679Z,25.6
2018-12-31T03:25:40.098Z,25.7
2018-12-31T03:26:42.551Z,25.9
2018-12-31T03:27:44.703Z,25.9
2018-12-31T03:28:47.147Z,25.8
2018-12-31T03:29:49.324Z,25.8
2018-12-31T03:30:51.494Z,25.8
2018-12-31T03:31:53.961Z,26
2018-12-31T03:32:56.410Z,26.1
2018-12-31T03:33:58.615Z,26
2018-12-31T03:35:01.032Z,25.7
2018-12-31T03:36:03.462Z,25.9
2018-12-31T03:37:05.613Z,25.9
2018-12-31T03:38:08.047Z,26.1
2018-12-31T03:39:10.488Z,26
2018-12-31T03:40:12.916Z,26.1
2018-12-31T03:41:15.074Z,25.8
2018-12-31T03:42:17.515Z,26
2018-12-31T03:43:19.635Z,26.1
2018-12-31T03:44:22.064Z,26.1
2018-12-31T03:45:24.488Z,26.1
2018-12-31T03:46:26.641Z,25.9
2018-12-31T03:47:28.812Z,25.8
2018-12-31T03:48:30.981Z,25.7
2018-12-31T03:49:33.122Z,25.9
2018-12-31T03:50:35.557Z,25.8
2018-12-31T03:51:37.723Z,25.9
2018-12-31T03:52:40.155Z,25.8
2018-12-31T03:53:42.317Z,25.8
2018-12-31T03:54:44.744Z,25.8
2018-12-31T03:55:47.185Z,25.6
2018-12-31T03:56:50.483Z,25.8
2018-12-31T03:57:52.933Z,25.7
2018-12-31T03:58:54.842Z,26
2018-12-31T03:59:57.330Z,25.7
2018-12-31T04:00:59.203Z,26.1
2018-12-31T04:02:01.635Z,26.1
2018-12-31T04:03:04.059Z,25.8
2018-12-31T04:04:06.480Z,25.9
2018-12-31T04:05:08.915Z,25.8
2018-12-31T04:06:11.331Z,26
2018-12-31T04:07:13.757Z,26
2018-12-31T04:08:16.194Z,25.7
2018-12-31T04:09:18.637Z,25.7
2018-12-31T04:10:20.786Z,25.8
2018-12-31T04:11:23.214Z,25.6
2018-12-31T04:12:25.629Z,25.7
2018-12-31T04:13:28.061Z,25.9
2018-12-31T04:14:30.494Z,25.8
2018-12-31T04:15:32.933Z,26.1
2018-12-31T04:16:35.362Z,25.8
2018-12-31T04:17:37.784Z,25.9
2018-12-31T04:18:39.678Z,25.8
2018-12-31T04:19:41.833Z,26
2018-12-31T04:20:44.261Z,26.1
2018-12-31T04:21:46.694Z,25.8
2018-12-31T04:22:49.116Z,25.7
2018-12-31T04:23:51.284Z,25.9
2018-12-31T04:24:53.472Z,25.9
2018-12-31T04:25:55.903Z,26
2018-12-31T04:26:58.342Z,25.8
2018-12-31T04:28:00.495Z,25.9
2018-12-31T04:29:02.657Z,26.1
2018-12-31T04:30:04.813Z,25.9
2018-12-31T04:31:07.249Z,25.8
2018-12-31T04:32:09.395Z,26
2018-12-31T04:33:11.818Z,25.8
2018-12-31T04:34:14.244Z,25.8
2018-12-31T04:35:16.680Z,25.9
2018-12-31T04:36:18.848Z,25.8
2018-12-31T04:37:21.274Z,25.8
2018-12-31T04:38:23.417Z,25.8
2018-12-31T04:39:25.852Z,26.1
2018-12-31T04:40:28.275Z,25.7
2018-12-31T04:41:30.434Z,25.6
2018-12-31T04:42:32.853Z,25.6
2018-12-31T04:43:35.028Z,25.9
2018-12-31T04:44:36.886Z,25.9
2018-12-31T04:45:39.050Z,25.7
2018-12-31T04:46:41.201Z,25.6
2018-12-31T04:47:43.616Z,25.8
2018-12-31T04:48:45.769Z,25.9
2018-12-31T04:49:48.199Z,25.7
2018-12-31T04:50:50.341Z,25.9
2018-12-31T04:51:52.763Z,25.7
2018-12-31T04:52:56.584Z,25.7
2018-12-31T04:53:59.080Z,25.7
2018-12-31T04:55:01.573Z,25.6
2018-12-31T04:56:03.512Z,25.8
2018-12-31T04:57:05.364Z,25.7
2018-12-31T04:58:07.786Z,25.9
2018-12-31T04:59:10.215Z,25.6
2018-12-31T05:00:12.837Z,25.6
2018-12-31T05:01:14.965Z,25.7
2018-12-31T05:02:17.386Z,25.7
2018-12-31T05:03:19.822Z,25.6
2018-12-31T05:04:22.112Z,25.3
2018-12-31T05:05:24.341Z,25.6
2018-12-31T05:06:26.777Z,25.7
2018-12-31T05:07:29.192Z,25.6
2018-12-31T05:08:31.079Z,25.7
2018-12-31T05:09:32.973Z,25.7
2018-12-31T05:10:34.888Z,25.9
2018-12-31T05:11:37.313Z,25.7
2018-12-31T05:12:39.756Z,25.8
2018-12-31T05:13:42.218Z,25.6
2018-12-31T05:14:44.095Z,25.6
2018-12-31T05:15:46.533Z,25.8
2018-12-31T05:16:48.963Z,25.7
2018-12-31T05:17:51.126Z,25.7
2018-12-31T05:18:53.559Z,25.7
2018-12-31T05:19:55.995Z,25.3
2018-12-31T05:20:58.413Z,25.6
2018-12-31T05:22:00.849Z,25.7
2018-12-31T05:23:05.302Z,25.5
2018-12-31T05:24:07.704Z,25.6
2018-12-31T05:25:09.851Z,25.8
2018-12-31T05:26:11.724Z,25.7
2018-12-31T05:27:13.885Z,25.8
2018-12-31T05:28:16.317Z,25.9
2018-12-31T05:29:18.453Z,25.6
2018-12-31T05:30:20.878Z,25.6
2018-12-31T05:31:23.291Z,25.9
2018-12-31T05:32:25.423Z,25.9
2018-12-31T05:33:27.843Z,26
2018-12-31T05:34:30.013Z,25.8
2018-12-31T05:35:32.441Z,25.7
2018-12-31T05:36:34.589Z,25.8
2018-12-31T05:37:37.017Z,25.8
2018-12-31T05:38:39.453Z,25.9
2018-12-31T05:39:41.880Z,25.8
2018-12-31T05:40:43.463Z,25.8
2018-12-31T05:41:45.653Z,25.7
2018-12-31T05:42:48.079Z,25.7
2018-12-31T05:43:49.660Z,25.7
2018-12-31T05:44:52.084Z,25.7
2018-12-31T05:45:54.231Z,25.6
2018-12-31T05:46:56.657Z,25.6
2018-12-31T05:47:59.080Z,25.7
2018-12-31T05:49:01.519Z,25.7
2018-12-31T05:50:03.654Z,25.9
2018-12-31T05:51:05.810Z,25.8
2018-12-31T05:52:07.963Z,25.9
2018-12-31T05:53:10.397Z,25.7
2018-12-31T05:54:12.553Z,25.7
2018-12-31T05:55:14.717Z,25.7
2018-12-31T05:56:17.147Z,25.7
2018-12-31T05:57:19.587Z,25.7
2018-12-31T05:58:22.023Z,25.7
2018-12-31T05:59:23.893Z,25.5
2018-12-31T06:00:25.789Z,25.7
2018-12-31T06:01:28.226Z,25.7
2018-12-31T06:02:30.644Z,26
2018-12-31T06:03:33.065Z,25.7
2018-12-31T06:04:35.485Z,25.6
2018-12-31T06:05:37.902Z,25.6
2018-12-31T06:06:40.064Z,25.7
2018-12-31T06:07:41.943Z,25.7
2018-12-31T06:08:44.368Z,25.8
2018-12-31T06:09:46.783Z,25.7
2018-12-31T06:10:49.237Z,25.6
2018-12-31T06:11:51.372Z,25.7
2018-12-31T06:12:53.796Z,25.8
2018-12-31T06:13:56.217Z,25.7
2018-12-31T06:14:58.634Z,25.7
2018-12-31T06:16:01.210Z,25.7
2018-12-31T06:17:05.146Z,25.7
2018-12-31T06:18:07.704Z,25.9
2018-12-31T06:19:10.116Z,25.6
2018-12-31T06:20:12.544Z,25.5
2018-12-31T06:21:14.986Z,25.6
2018-12-31T06:22:17.154Z,25.8
2018-12-31T06:23:19.594Z,25.8
2018-12-31T06:24:22.064Z,25.7
2018-12-31T06:25:24.541Z,25.6
2018-12-31T06:26:26.662Z,25.5
2018-12-31T06:27:29.086Z,25.6
2018-12-31T06:28:30.965Z,25.5
2018-12-31T06:29:33.126Z,25.6
2018-12-31T06:30:35.586Z,25.6
2018-12-31T06:31:37.752Z,25.6
2018-12-31T06:32:40.176Z,25.7
2018-12-31T06:33:42.605Z,25.7
2018-12-31T06:34:45.028Z,25.6
2018-12-31T06:35:47.172Z,25.6
2018-12-31T06:36:49.345Z,25.8
2018-12-31T06:37:51.771Z,25.5
2018-12-31T06:38:53.645Z,25.6
2018-12-31T06:39:55.524Z,25.3
2018-12-31T06:40:57.675Z,25.6
2018-12-31T06:42:00.104Z,25.8
2018-12-31T06:43:02.557Z,25.4
2018-12-31T06:44:04.700Z,25.8
2018-12-31T06:45:06.854Z,25.8
2018-12-31T06:46:09.004Z,25.7
2018-12-31T06:47:11.428Z,25.4
2018-12-31T06:48:13.853Z,25.4
2018-12-31T06:49:16.288Z,25.5
2018-12-31T06:50:18.709Z,25.7
2018-12-31T06:51:21.145Z,25.7
2018-12-31T06:52:23.550Z,25.6
2018-12-31T06:53:25.763Z,25.5
2018-12-31T06:54:27.913Z,25.6
2018-12-31T06:55:30.172Z,25.6
2018-12-31T06:56:32.969Z,25.5
2018-12-31T06:57:35.441Z,25.6
2018-12-31T06:58:37.894Z,25.7
2018-12-31T06:59:40.358Z,25.7
2018-12-31T07:00:42.530Z,25.7
2018-12-31T07:01:44.666Z,25.7
2018-12-31T07:02:46.824Z,25.8
2018-12-31T07:05:06.504Z,25.8
2018-12-31T07:06:08.375Z,25.5
2018-12-31T07:07:10.800Z,25.5
2018-12-31T07:08:13.234Z,25.7
2018-12-31T07:09:15.664Z,25.7
2018-12-31T07:10:18.096Z,25.5
2018-12-31T07:11:20.524Z,25.6
2018-12-31T07:12:22.939Z,25.4
2018-12-31T07:13:25.361Z,25.6
2018-12-31T07:14:27.794Z,25.5
2018-12-31T07:15:29.972Z,25.7
2018-12-31T07:16:32.154Z,25.7
2018-12-31T07:17:34.574Z,25.7
2018-12-31T07:18:37.020Z,25.7
2018-12-31T07:19:40.455Z,25.6
2018-12-31T07:20:42.368Z,25.7
2018-12-31T07:21:44.815Z,25.7
2018-12-31T07:22:46.698Z,25.7
2018-12-31T07:23:48.845Z,25.5
2018-12-31T07:24:51.294Z,25.7
2018-12-31T07:25:53.724Z,25.5
2018-12-31T07:26:56.153Z,25.6
2018-12-31T07:27:58.318Z,25.8
2018-12-31T07:29:00.746Z,25.6
2018-12-31T07:30:02.896Z,25.4
2018-12-31T07:31:05.329Z,25.7
2018-12-31T07:32:07.814Z,25.7
2018-12-31T07:33:10.252Z,25.5
2018-12-31T07:34:12.679Z,25.5
2018-12-31T07:35:14.858Z,25.4
2018-12-31T07:36:17.286Z,25.6
2018-12-31T07:37:19.171Z,25.5
2018-12-31T07:38:21.608Z,25.4
2018-12-31T07:39:23.782Z,25.5
2018-12-31T07:40:25.936Z,25.6
2018-12-31T07:41:28.085Z,25.6
2018-12-31T07:42:30.248Z,25.3
2018-12-31T07:43:32.102Z,25.6
2018-12-31T07:44:34.255Z,25.4
2018-12-31T07:45:36.426Z,25.5
2018-12-31T07:46:38.642Z,25.4
2018-12-31T07:47:41.057Z,25.6
2018-12-31T07:48:43.494Z,25.5
2018-12-31T07:49:45.924Z,25.6
2018-12-31T07:50:47.781Z,25.4
2018-12-31T07:51:50.204Z,25.6
2018-12-31T07:52:52.642Z,25.6
2018-12-31T07:53:55.074Z,25.7
2018-12-31T07:54:57.504Z,25.4
2018-12-31T07:55:59.926Z,25.6
2018-12-31T07:57:02.344Z,25.3
2018-12-31T07:58:04.492Z,25.5
2018-12-31T07:59:06.403Z,25.4
2018-12-31T08:00:08.572Z,25.6
2018-12-31T08:01:10.988Z,25.7
2018-12-31T08:02:13.434Z,25.3
2018-12-31T08:03:15.861Z,25.6
2018-12-31T08:04:18.298Z,25.4
2018-12-31T08:05:20.189Z,25.2
2018-12-31T08:06:22.653Z,25.7
2018-12-31T08:07:24.806Z,25.4
2018-12-31T08:08:26.972Z,25.6
2018-12-31T08:09:29.391Z,25.7
2018-12-31T08:10:31.822Z,25.5
2018-12-31T08:11:34.254Z,25.6
2018-12-31T08:12:36.720Z,25.7
2018-12-31T08:13:39.143Z,25.6
2018-12-31T08:14:41.032Z,25.5
2018-12-31T08:15:43.472Z,25.5
2018-12-31T08:16:45.898Z,25.5
2018-12-31T08:17:48.318Z,25.6
2018-12-31T08:18:50.738Z,25.6
2018-12-31T08:19:53.166Z,25.5
2018-12-31T08:20:55.589Z,25.5
2018-12-31T08:21:58.020Z,25.9
2018-12-31T08:23:00.196Z,25.7
2018-12-31T08:24:02.624Z,25.6
2018-12-31T08:25:04.474Z,25.6
2018-12-31T08:26:06.940Z,25.4
2018-12-31T08:27:09.394Z,25.7
2018-12-31T08:28:11.664Z,25.7
2018-12-31T08:29:13.565Z,25.5
2018-12-31T08:30:15.728Z,25.6
2018-12-31T08:31:19.924Z,25.3
2018-12-31T08:32:22.354Z,25.7
2018-12-31T08:33:24.783Z,25.6
2018-12-31T08:34:27.224Z,25.4
2018-12-31T08:35:29.387Z,25.5
2018-12-31T08:36:31.543Z,25.5
2018-12-31T08:37:33.972Z,25.5
2018-12-31T08:38:35.854Z,25.4
2018-12-31T08:39:38.295Z,25.6
2018-12-31T08:40:40.441Z,25.2
2018-12-31T08:41:42.866Z,25.4
2018-12-31T08:42:45.021Z,25.6
2018-12-31T08:43:47.195Z,25.9
2018-12-31T08:44:49.614Z,25.7
2018-12-31T08:45:51.767Z,25.6
2018-12-31T08:46:54.193Z,25.9
2018-12-31T08:47:56.626Z,25.6
2018-12-31T08:48:58.780Z,26.1
2018-12-31T08:50:03.073Z,25.8
2018-12-31T08:51:05.535Z,25.8
2018-12-31T08:52:07.703Z,25.8
2018-12-31T08:53:10.143Z,25.8
2018-12-31T08:54:12.614Z,25.7
2018-12-31T08:55:14.775Z,25.7
2018-12-31T08:56:17.207Z,25.8
2018-12-31T08:57:19.633Z,26
2018-12-31T08:58:22.060Z,25.9
2018-12-31T08:59:24.224Z,25.8
2018-12-31T09:00:26.373Z,25.9
2018-12-31T09:01:28.816Z,25.9
2018-12-31T09:02:30.974Z,25.9
2018-12-31T09:03:33.143Z,26.3
2018-12-31T09:04:35.317Z,26
2018-12-31T09:05:37.754Z,25.7
2018-12-31T09:06:40.194Z,25.8
2018-12-31T09:07:42.625Z,26.2
2018-12-31T09:08:44.786Z,25.8
2018-12-31T09:09:47.225Z,25.7
2018-12-31T09:10:49.087Z,26
2018-12-31T09:11:51.518Z,25.9
2018-12-31T09:12:53.694Z,25.9
2018-12-31T09:13:55.847Z,26.1
2018-12-31T09:14:58.275Z,26.1
2018-12-31T09:16:00.706Z,25.8
2018-12-31T09:17:03.195Z,26.2
2018-12-31T09:18:05.615Z,26.3
2018-12-31T09:19:08.035Z,26
2018-12-31T09:20:10.477Z,26
2018-12-31T09:21:12.930Z,26
2018-12-31T09:22:15.350Z,26.2
2018-12-31T09:23:17.246Z,25.8
2018-12-31T09:24:19.674Z,26.1
2018-12-31T09:25:21.851Z,25.9
2018-12-31T09:26:24.328Z,25.9
2018-12-31T09:27:26.484Z,26.1
2018-12-31T09:28:28.662Z,25.9
2018-12-31T09:29:31.099Z,26.1
2018-12-31T09:30:32.984Z,26
2018-12-31T09:31:35.425Z,25.8
2018-12-31T09:32:37.564Z,25.9
2018-12-31T09:33:39.702Z,26.1
2018-12-31T09:34:42.160Z,25.9
2018-12-31T09:35:44.595Z,25.9
2018-12-31T09:36:47.014Z,26
2018-12-31T09:37:49.443Z,26
2018-12-31T09:38:51.883Z,26.1
2018-12-31T09:39:54.029Z,26
2018-12-31T09:40:55.955Z,25.9
2018-12-31T09:41:57.836Z,25.8
2018-12-31T09:42:59.988Z,25.7
2018-12-31T09:44:02.412Z,25.7
2018-12-31T09:45:04.573Z,25.9
2018-12-31T09:46:06.756Z,25.8
2018-12-31T09:47:08.935Z,25.8
2018-12-31T09:48:11.366Z,25.9
2018-12-31T09:49:13.790Z,25.8
2018-12-31T09:50:16.225Z,25.9
2018-12-31T09:51:18.693Z,25.9
2018-12-31T09:52:21.128Z,25.9
2018-12-31T09:53:23.595Z,26.1
2018-12-31T09:54:26.037Z,25.8
2018-12-31T09:55:28.458Z,25.9
2018-12-31T09:56:30.892Z,25.9
2018-12-31T09:57:33.027Z,25.7
2018-12-31T09:58:36.378Z,25.8
2018-12-31T09:59:38.877Z,25.6
2018-12-31T10:00:40.473Z,25.7
2018-12-31T10:01:42.907Z,25.7
2018-12-31T10:02:44.798Z,25.8
2018-12-31T10:03:47.640Z,25.6
2018-12-31T10:04:50.134Z,25.6
2018-12-31T10:05:51.733Z,25.7
2018-12-31T10:06:54.162Z,25.8
2018-12-31T10:07:56.324Z,25.9
2018-12-31T10:08:58.763Z,26
2018-12-31T10:10:00.922Z,25.6
2018-12-31T10:11:03.167Z,25.9
2018-12-31T10:12:05.606Z,25.9
2018-12-31T10:13:08.035Z,26.1
2018-12-31T10:14:10.570Z,25.6
2018-12-31T10:15:13.001Z,26
2018-12-31T10:16:15.165Z,25.9
2018-12-31T10:17:17.327Z,25.9
2018-12-31T10:18:19.482Z,25.9
2018-12-31T10:19:21.915Z,25.7
2018-12-31T10:20:24.076Z,25.9
2018-12-31T10:21:26.527Z,26
2018-12-31T10:22:28.978Z,26
2018-12-31T10:23:31.171Z,26.3
2018-12-31T10:24:33.316Z,26
2018-12-31T10:25:35.465Z,26.1
2018-12-31T10:26:37.894Z,25.9
2018-12-31T10:27:40.886Z,25.8
2018-12-31T10:28:43.068Z,26
2018-12-31T10:29:45.231Z,25.9
2018-12-31T10:30:47.388Z,26.1
2018-12-31T10:31:49.544Z,26.1
2018-12-31T10:32:53.045Z,26.1
2018-12-31T10:33:55.518Z,26
2018-12-31T10:34:57.682Z,26
2018-12-31T10:35:59.833Z,26
2018-12-31T10:37:02.283Z,26.2
2018-12-31T10:38:04.454Z,25.9
2018-12-31T10:39:06.881Z,26
2018-12-31T10:40:09.300Z,26.2
2018-12-31T10:41:11.463Z,26
2018-12-31T10:42:13.648Z,26.3
2018-12-31T10:43:16.091Z,26.1
2018-12-31T10:44:17.952Z,26
2018-12-31T10:45:20.099Z,26.2
2018-12-31T10:46:22.225Z,26.1
2018-12-31T10:47:24.400Z,26.3
2018-12-31T10:48:26.834Z,25.9
2018-12-31T10:49:29.259Z,26.1
2018-12-31T10:50:31.120Z,26
2018-12-31T10:51:32.983Z,26.2
2018-12-31T10:52:35.137Z,26
2018-12-31T10:53:37.569Z,26.1
2018-12-31T10:54:40.001Z,26.2
2018-12-31T10:55:42.159Z,26
2018-12-31T10:56:44.306Z,26.1
2018-12-31T10:57:46.445Z,26.2
2018-12-31T10:58:48.601Z,26.1
2018-12-31T10:59:50.786Z,26.1
2018-12-31T11:00:53.231Z,26.2
2018-12-31T11:01:55.117Z,26
2018-12-31T11:02:57.009Z,26.2
2018-12-31T11:03:59.433Z,26
2018-12-31T11:05:01.870Z,26
2018-12-31T11:06:04.025Z,26.4
2018-12-31T11:07:05.887Z,26.2
2018-12-31T11:08:07.773Z,26.1
2018-12-31T11:09:11.779Z,26.3
2018-12-31T11:10:14.211Z,25.8
2018-12-31T11:11:16.374Z,26
2018-12-31T11:12:18.810Z,26.2
2018-12-31T11:13:20.677Z,26.1
2018-12-31T11:14:22.829Z,26.3
2018-12-31T11:15:25.263Z,26.2
2018-12-31T11:16:27.430Z,26
2018-12-31T11:17:29.844Z,26.3
2018-12-31T11:18:32.012Z,26.1
2018-12-31T11:19:33.643Z,26.4
2018-12-31T11:20:35.544Z,26.1
2018-12-31T11:21:37.982Z,26
2018-12-31T11:22:40.409Z,26.2
2018-12-31T11:23:42.562Z,26.3
2018-12-31T11:24:44.463Z,26.2
2018-12-31T11:25:46.903Z,26.3
2018-12-31T11:26:49.059Z,25.9
2018-12-31T11:27:51.222Z,26.4
2018-12-31T11:28:53.383Z,26
2018-12-31T11:29:55.550Z,26
2018-12-31T11:30:57.737Z,26.3
2018-12-31T11:32:00.175Z,25.8
2018-12-31T11:33:02.334Z,26.1
2018-12-31T11:34:04.504Z,25.8
2018-12-31T11:35:06.935Z,26.2
2018-12-31T11:36:09.373Z,26
2018-12-31T11:37:11.807Z,26
2018-12-31T11:38:13.975Z,26.1
2018-12-31T11:39:16.119Z,26
2018-12-31T11:40:18.006Z,26
2018-12-31T11:41:19.892Z,26.2
2018-12-31T11:42:22.024Z,25.6
2018-12-31T11:43:24.455Z,25.9
2018-12-31T11:44:26.333Z,25.9
2018-12-31T11:45:28.493Z,25.8
2018-12-31T11:46:30.927Z,26.1
2018-12-31T11:47:33.064Z,26.3
2018-12-31T11:48:35.506Z,25.9
2018-12-31T11:49:37.698Z,26.3
2018-12-31T11:50:40.171Z,26.1
2018-12-31T11:51:42.617Z,26.1
2018-12-31T11:52:44.790Z,26.2
2018-12-31T11:53:46.643Z,26.1
2018-12-31T11:54:49.071Z,26.3
2018-12-31T11:55:51.232Z,26.4
2018-12-31T11:56:53.671Z,26.4
2018-12-31T11:57:56.108Z,26.2
2018-12-31T11:58:58.534Z,26.4
2018-12-31T12:00:00.674Z,26
2018-12-31T12:01:03.124Z,26.1
2018-12-31T12:02:05.559Z,26
2018-12-31T12:03:07.726Z,26.2
2018-12-31T12:04:09.883Z,26
2018-12-31T12:05:12.369Z,26.3
2018-12-31T12:06:14.832Z,26.1
2018-12-31T12:07:17.256Z,26.4
2018-12-31T12:08:19.432Z,26.1
2018-12-31T12:09:21.580Z,26
2018-12-31T12:10:23.744Z,25.8
2018-12-31T12:11:25.327Z,26
2018-12-31T12:12:27.756Z,26
2018-12-31T12:13:30.189Z,25.8
2018-12-31T12:14:32.382Z,26.2
2018-12-31T12:15:34.590Z,26.3
2018-12-31T12:16:37.053Z,25.8
2018-12-31T12:17:40.573Z,25.9
2018-12-31T12:18:42.754Z,25.8
2018-12-31T12:19:44.988Z,26
2018-12-31T12:20:47.430Z,25.9
2018-12-31T12:21:49.594Z,26.2
2018-12-31T12:22:52.024Z,26.3
2018-12-31T12:23:53.954Z,26.1
2018-12-31T12:24:56.104Z,26.2
2018-12-31T12:25:58.535Z,25.8
2018-12-31T12:27:00.965Z,26.3
2018-12-31T12:28:03.131Z,25.9
2018-12-31T12:29:07.273Z,26.1
2018-12-31T12:30:09.169Z,25.9
2018-12-31T12:31:13.013Z,26.1
2018-12-31T12:32:15.165Z,25.8
2018-12-31T12:33:17.060Z,26
2018-12-31T12:34:19.231Z,26
2018-12-31T12:35:21.388Z,25.8
2018-12-31T12:36:23.818Z,25.9
2018-12-31T12:37:25.422Z,25.8
2018-12-31T12:38:27.576Z,25.9
2018-12-31T12:39:30.007Z,25.9
2018-12-31T12:40:32.200Z,26.2
2018-12-31T12:41:34.613Z,25.6
2018-12-31T12:42:36.764Z,25.7
2018-12-31T12:43:39.893Z,25.8
2018-12-31T12:44:42.574Z,26.1
2018-12-31T12:45:44.462Z,25.8
2018-12-31T12:46:46.354Z,25.9
2018-12-31T12:47:48.802Z,26
2018-12-31T12:48:51.247Z,26
2018-12-31T12:49:53.680Z,25.9
2018-12-31T12:50:56.105Z,25.7
2018-12-31T12:51:58.562Z,25.8
2018-12-31T12:53:00.988Z,26.2
2018-12-31T12:54:03.422Z,25.9
2018-12-31T12:55:05.851Z,26
2018-12-31T12:56:07.996Z,25.8
2018-12-31T12:57:11.755Z,26.2
2018-12-31T12:58:14.918Z,26.2
2018-12-31T12:59:17.084Z,25.8
2018-12-31T13:00:19.540Z,25.8
2018-12-31T13:01:21.400Z,26.2
2018-12-31T13:02:23.551Z,26.1
2018-12-31T13:03:25.699Z,26.1
2018-12-31T13:04:27.877Z,26
2018-12-31T13:05:30.308Z,26
2018-12-31T13:06:32.745Z,25.7
2018-12-31T13:07:34.608Z,25.9
2018-12-31T13:08:36.782Z,26
2018-12-31T13:09:39.219Z,25.6
2018-12-31T13:10:42.782Z,25.9
2018-12-31T13:11:45.234Z,25.6
2018-12-31T13:12:47.680Z,25.8
2018-12-31T13:13:50.143Z,25.9
2018-12-31T13:14:52.298Z,25.8
2018-12-31T13:15:54.734Z,25.9
2018-12-31T13:16:56.891Z,25.7
2018-12-31T13:17:58.790Z,26
2018-12-31T13:19:01.209Z,25.7
2018-12-31T13:20:03.641Z,25.9
2018-12-31T13:21:06.080Z,25.8
2018-12-31T13:22:08.584Z,26
2018-12-31T13:23:10.724Z,25.9
2018-12-31T13:24:14.176Z,25.8
2018-12-31T13:25:16.039Z,25.8
2018-12-31T13:26:18.466Z,25.6
2018-12-31T13:27:20.062Z,25.6
2018-12-31T13:28:22.495Z,25.9
2018-12-31T13:29:25.001Z,25.8
2018-12-31T13:30:27.434Z,26
2018-12-31T13:31:29.856Z,25.6
2018-12-31T13:32:32.017Z,25.8
2018-12-31T13:33:34.472Z,25.9
2018-12-31T13:34:37.096Z,25.6
2018-12-31T13:35:39.266Z,25.7
2018-12-31T13:36:42.102Z,26.1
2018-12-31T13:37:45.743Z,25.8
2018-12-31T13:38:47.873Z,25.6
2018-12-31T13:39:50.042Z,26
2018-12-31T13:40:52.189Z,25.7
2018-12-31T13:41:54.355Z,25.6
2018-12-31T13:42:56.508Z,25.4
2018-12-31T13:43:58.371Z,25.6
2018-12-31T13:45:00.564Z,25.7
2018-12-31T13:46:03.500Z,25.9
2018-12-31T13:47:06.037Z,25.9
2018-12-31T13:48:08.483Z,25.7
2018-12-31T13:49:11.657Z,25.7
2018-12-31T13:50:14.340Z,25.5
2018-12-31T13:51:18.335Z,25.7
2018-12-31T13:52:23.162Z,25.8
2018-12-31T13:53:25.341Z,26
2018-12-31T13:54:27.497Z,26
2018-12-31T13:55:29.714Z,25.6